Time;durP1;ratioP1;P1;durP2;ratioP2;P2;SDS_P1;SDS_P2;PMS_P1;PMS_P2;Temp;Humidity;BMP_temperature;BMP_pressure;BME280_temperature;BME280_humidity;BME280_pressure;Samples;Min_cycle;Max_cycle;Signal;HPM_P1;HPM_P2
2022/08/07 00:01:41;;;;;;;1999.90;999.90;;;17.80;99.90;;;;;;5031606;28;20426;-66
2022/08/07 00:04:07;;;;;;;1999.90;999.90;;;17.70;99.90;;;;;;5031669;28;20203;-66
2022/08/07 00:06:33;;;;;;;1999.90;999.90;;;17.70;99.90;;;;;;5031370;28;20226;-66
2022/08/07 00:09:00;;;;;;;1999.90;999.90;;;17.70;99.90;;;;;;5031566;28;20496;-66
2022/08/07 00:11:25;;;;;;;1999.90;999.90;;;17.70;99.90;;;;;;5031463;28;20460;-66
2022/08/07 00:13:51;;;;;;;1999.90;999.90;;;17.70;99.90;;;;;;5031531;28;20422;-66
2022/08/07 00:16:17;;;;;;;1999.90;999.90;;;17.60;99.90;;;;;;5031311;28;20176;-66
2022/08/07 00:18:42;;;;;;;1999.90;999.90;;;17.60;99.90;;;;;;5031528;28;20525;-66
2022/08/07 00:21:09;;;;;;;1999.90;999.90;;;17.50;99.90;;;;;;5031430;28;20663;-66
2022/08/07 00:23:37;;;;;;;1999.90;999.90;;;17.40;99.90;;;;;;5034731;28;20250;-65
2022/08/07 00:26:05;;;;;;;1999.90;999.90;;;17.40;99.90;;;;;;5035105;28;20410;-67
2022/08/07 00:28:31;;;;;;;1999.90;999.90;;;17.40;99.90;;;;;;5035226;28;20549;-66
2022/08/07 00:30:57;;;;;;;1999.90;999.90;;;17.40;99.90;;;;;;5034863;28;20464;-66
2022/08/07 00:33:27;;;;;;;1999.90;999.90;;;17.30;99.90;;;;;;5035073;28;20915;-67
2022/08/07 00:35:54;;;;;;;1999.90;999.90;;;17.20;99.90;;;;;;5034856;28;20414;-66
2022/08/07 00:38:20;;;;;;;1999.90;999.90;;;17.10;99.90;;;;;;5034831;28;20410;-67
2022/08/07 00:40:45;;;;;;;1999.90;999.90;;;17.00;99.90;;;;;;5035007;28;20425;-67
2022/08/07 00:43:12;;;;;;;1999.90;999.90;;;16.90;99.90;;;;;;5034951;28;20821;-66
2022/08/07 00:45:39;;;;;;;1999.90;999.90;;;16.80;99.90;;;;;;5034852;28;20172;-66
2022/08/07 00:48:05;;;;;;;1999.90;999.90;;;16.80;99.90;;;;;;5034536;28;20906;-67
2022/08/07 00:50:31;;;;;;;1999.90;999.90;;;16.70;99.90;;;;;;5034681;28;20826;-67
2022/08/07 00:52:56;;;;;;;1999.90;999.90;;;16.70;99.90;;;;;;5034708;28;20413;-66
2022/08/07 00:55:22;;;;;;;1999.90;999.90;;;16.60;99.90;;;;;;5034709;28;20406;-67
2022/08/07 00:57:48;;;;;;;1999.90;999.90;;;16.60;99.90;;;;;;5034384;28;20168;-65
2022/08/07 01:00:14;;;;;;;1999.90;999.90;;;16.60;99.90;;;;;;5034426;28;20467;-66
2022/08/07 01:02:41;;;;;;;1999.90;999.90;;;16.50;99.90;;;;;;5034540;28;20179;-65
2022/08/07 01:05:08;;;;;;;1999.90;999.90;;;16.40;99.90;;;;;;5034461;28;20965;-66
2022/08/07 01:07:34;;;;;;;1999.90;999.90;;;16.40;99.90;;;;;;5034214;28;20807;-66
2022/08/07 01:10:00;;;;;;;1999.90;999.90;;;16.40;99.90;;;;;;5034342;28;20419;-66
2022/08/07 01:12:27;;;;;;;1999.90;999.90;;;16.40;99.90;;;;;;5034312;28;20468;-66
2022/08/07 01:14:53;;;;;;;1999.90;999.90;;;16.40;99.90;;;;;;5034322;28;20408;-67
2022/08/07 01:17:18;;;;;;;1999.90;999.90;;;16.30;99.90;;;;;;5034012;28;20402;-67
2022/08/07 01:19:45;;;;;;;1999.90;999.90;;;16.30;99.90;;;;;;5034277;28;20466;-66
2022/08/07 01:22:11;;;;;;;1999.90;999.90;;;16.40;99.90;;;;;;5047000;28;20187;-67
2022/08/07 01:24:37;;;;;;;1999.90;999.90;;;16.40;99.90;;;;;;5029603;28;20425;-65
2022/08/07 01:27:03;;;;;;;1999.90;999.90;;;16.40;99.90;;;;;;5033829;28;20842;-67
2022/08/07 01:29:30;;;;;;;1999.90;999.90;;;16.30;99.90;;;;;;5034043;28;20401;-66
2022/08/07 01:31:55;;;;;;;1999.90;999.90;;;16.30;99.90;;;;;;5033764;28;20472;-67
2022/08/07 01:34:21;;;;;;;1999.90;999.90;;;16.30;99.90;;;;;;5033486;28;20405;-67
2022/08/07 01:36:48;;;;;;;1999.90;999.90;;;16.20;99.90;;;;;;5033655;28;20471;-66
2022/08/07 01:39:14;;;;;;;1999.90;999.90;;;16.20;99.90;;;;;;5033952;28;20288;-67
2022/08/07 01:41:42;;;;;;;1999.90;999.90;;;16.20;99.90;;;;;;5033781;28;20470;-67
2022/08/07 01:44:09;;;;;;;1999.90;999.90;;;16.20;99.90;;;;;;5033833;28;20793;-67
2022/08/07 01:46:35;;;;;;;1999.90;999.90;;;16.20;99.90;;;;;;5033422;28;20490;-67
2022/08/07 01:49:01;;;;;;;1999.90;999.90;;;16.10;99.90;;;;;;5033665;28;21005;-67
2022/08/07 01:51:28;;;;;;;1999.90;999.90;;;16.00;99.90;;;;;;5033579;28;20450;-67
2022/08/07 01:54:01;;;;;;;1999.90;999.90;;;16.00;99.90;;;;;;5033783;28;20823;-66
2022/08/07 01:56:57;;;;;;;1999.90;999.90;;;15.90;99.90;;;;;;5033297;28;20757;-67
2022/08/07 01:59:39;;;;;;;1999.90;999.90;;;16.00;99.90;;;;;;5031599;28;20418;-66
2022/08/07 02:02:10;;;;;;;1999.90;999.90;;;15.90;99.90;;;;;;5033518;28;20811;-67
2022/08/07 02:04:52;;;;;;;1999.90;999.90;;;15.90;99.90;;;;;;5033426;28;20408;-66
2022/08/07 02:07:21;;;;;;;1999.90;999.90;;;15.90;99.90;;;;;;5033287;28;20806;-67
2022/08/07 02:09:51;;;;;;;1999.90;999.90;;;15.80;99.90;;;;;;5033247;28;20957;-67
2022/08/07 02:12:19;;;;;;;1999.90;999.90;;;15.70;99.90;;;;;;5033235;28;20465;-67
2022/08/07 02:14:48;;;;;;;1999.90;999.90;;;15.70;99.90;;;;;;5033155;28;20403;-67
2022/08/07 02:17:15;;;;;;;1999.90;999.90;;;15.60;99.90;;;;;;5032787;28;20910;-67
2022/08/07 02:19:45;;;;;;;1999.90;999.90;;;15.50;99.90;;;;;;5033284;28;20410;-67
2022/08/07 02:22:12;;;;;;;1999.90;999.90;;;15.50;99.90;;;;;;5032974;28;20424;-66
2022/08/07 02:24:42;;;;;;;1999.90;999.90;;;15.40;99.90;;;;;;5032970;28;20414;-67
2022/08/07 02:27:08;;;;;;;1999.90;999.90;;;15.20;99.90;;;;;;5032616;28;20403;-67
2022/08/07 02:29:34;;;;;;;1999.90;999.90;;;15.10;99.90;;;;;;5032868;28;20409;-67
2022/08/07 02:32:01;;;;;;;1999.90;999.90;;;15.10;99.90;;;;;;5032635;28;20989;-67
2022/08/07 02:34:29;;;;;;;1999.90;999.90;;;15.10;99.90;;;;;;5032846;28;20401;-67
2022/08/07 02:36:56;;;;;;;1999.90;999.90;;;15.00;99.90;;;;;;5032611;28;20808;-66
2022/08/07 02:39:24;;;;;;;1999.90;999.90;;;15.00;99.90;;;;;;5032675;28;20410;-67
2022/08/07 02:41:51;;;;;;;1999.90;999.90;;;14.90;99.90;;;;;;5032647;28;20437;-67
2022/08/07 02:44:18;;;;;;;1999.90;999.90;;;14.90;99.90;;;;;;5032000;28;20490;-66
2022/08/07 02:46:47;;;;;;;1999.90;999.90;;;14.90;99.90;;;;;;5032179;28;20415;-67
2022/08/07 02:49:13;;;;;;;1999.90;999.90;;;14.80;99.90;;;;;;5032712;28;20555;-67
2022/08/07 02:51:41;;;;;;;1999.90;999.90;;;14.80;99.90;;;;;;5032383;28;20462;-67
2022/08/07 02:54:10;;;;;;;1999.90;999.90;;;14.70;99.90;;;;;;5032678;28;20395;-67
2022/08/07 02:56:38;;;;;;;1999.90;999.90;;;14.60;99.90;;;;;;5032164;28;20468;-66
2022/08/07 02:59:10;;;;;;;1999.90;999.90;;;14.60;99.90;;;;;;5032208;28;20402;-67
2022/08/07 03:01:38;;;;;;;1999.90;999.90;;;14.60;99.90;;;;;;5032296;28;20436;-67
2022/08/07 03:04:09;;;;;;;1999.90;999.90;;;14.50;99.90;;;;;;5032320;28;20414;-67
2022/08/07 03:06:36;;;;;;;1999.90;999.90;;;14.50;99.90;;;;;;5032139;28;20433;-67
2022/08/07 03:09:04;;;;;;;1999.90;999.90;;;14.50;99.90;;;;;;5032295;28;20421;-67
2022/08/07 03:11:31;;;;;;;1999.90;999.90;;;14.40;99.90;;;;;;5032019;28;20485;-67
2022/08/07 03:13:57;;;;;;;1999.90;999.90;;;14.40;99.90;;;;;;5032191;28;20467;-66
2022/08/07 03:16:24;;;;;;;1999.90;999.90;;;14.30;99.90;;;;;;5031877;28;20947;-66
2022/08/07 03:18:51;;;;;;;1999.90;999.90;;;14.20;99.90;;;;;;5032151;28;20942;-66
2022/08/07 03:21:17;;;;;;;1999.90;999.90;;;14.10;99.90;;;;;;5040757;28;20461;-66
2022/08/07 03:23:44;;;;;;;1999.90;999.90;;;14.10;99.90;;;;;;5022750;28;20976;-66
2022/08/07 03:26:13;;;;;;;1999.90;999.90;;;14.00;99.90;;;;;;5031773;28;20418;-66
2022/08/07 03:28:40;;;;;;;1999.90;999.90;;;14.00;99.90;;;;;;5032117;28;20401;-66
2022/08/07 03:31:17;;;;;;;1999.90;999.90;;;14.10;99.90;;;;;;5076879;22;20476;-71
2022/08/07 03:33:48;;;;;;;1999.90;999.90;;;14.10;99.90;;;;;;5051972;28;20404;-70
2022/08/07 03:36:16;;;;;;;1999.90;999.90;;;14.10;99.90;;;;;;5051576;28;20914;-70
2022/08/07 03:38:42;;;;;;;1999.90;999.90;;;14.10;99.90;;;;;;5051857;28;20478;-71
2022/08/07 03:41:09;;;;;;;1999.90;999.90;;;14.10;99.90;;;;;;5051721;28;20502;-69
2022/08/07 03:43:36;;;;;;;1999.90;999.90;;;14.10;99.90;;;;;;5051766;28;20410;-71
2022/08/07 03:46:04;;;;;;;1999.90;999.90;;;14.10;99.90;;;;;;5051637;28;20401;-70
2022/08/07 03:48:32;;;;;;;1999.90;999.90;;;14.00;99.90;;;;;;5051756;28;20401;-70
2022/08/07 03:50:58;;;;;;;1999.90;999.90;;;14.00;99.90;;;;;;5051571;28;20483;-70
2022/08/07 03:53:25;;;;;;;1999.90;999.90;;;13.90;99.90;;;;;;5051731;28;20399;-70
2022/08/07 03:55:52;;;;;;;1999.90;999.90;;;13.70;99.90;;;;;;5052213;28;20411;-70
2022/08/07 03:58:20;;;;;;;1999.90;999.90;;;13.70;99.90;;;;;;5055480;28;20498;-71
2022/08/07 04:00:48;;;;;;;1999.90;999.90;;;13.70;99.90;;;;;;5055693;28;20439;-71
2022/08/07 04:03:14;;;;;;;1999.90;999.90;;;13.70;99.90;;;;;;5055652;28;20408;-70
2022/08/07 04:05:40;;;;;;;1999.90;999.90;;;13.70;99.90;;;;;;5055552;28;20474;-71
2022/08/07 04:08:10;;;;;;;1999.90;999.90;;;13.70;99.90;;;;;;5055326;28;20405;-71
2022/08/07 04:10:36;;;;;;;1999.90;999.90;;;13.70;99.90;;;;;;5055399;28;20463;-70
2022/08/07 04:13:02;;;;;;;1999.90;999.90;;;13.70;99.90;;;;;;5055404;28;20487;-70
2022/08/07 04:15:28;;;;;;;1999.90;999.90;;;13.70;99.90;;;;;;5055418;28;20304;-70
2022/08/07 04:17:54;;;;;;;1999.90;999.90;;;13.70;99.90;;;;;;5055128;28;20487;-70
2022/08/07 04:20:20;;;;;;;1999.90;999.90;;;13.70;99.90;;;;;;5055290;28;20257;-70
2022/08/07 04:22:48;;;;;;;1999.90;999.90;;;13.60;99.90;;;;;;5055184;28;20428;-70
2022/08/07 04:25:16;;;;;;;1999.90;999.90;;;13.60;99.90;;;;;;5055173;28;20901;-70
2022/08/07 04:27:41;;;;;;;1999.90;999.90;;;13.60;99.90;;;;;;5058828;28;20410;-71
2022/08/07 04:30:08;;;;;;;1999.90;999.90;;;13.70;99.90;;;;;;5043845;28;20437;-71
2022/08/07 04:32:34;;;;;;;1999.90;999.90;;;13.70;99.90;;;;;;5060898;28;20210;-71
2022/08/07 04:35:02;;;;;;;1999.90;999.90;;;13.70;99.90;;;;;;5062117;28;20421;-71
2022/08/07 04:37:28;;;;;;;1999.90;999.90;;;13.70;99.90;;;;;;5061044;28;20411;-71
2022/08/07 04:39:53;;;;;;;1999.90;999.90;;;13.70;99.90;;;;;;5061491;28;20743;-70
2022/08/07 04:42:19;;;;;;;1999.90;999.90;;;13.70;99.90;;;;;;5059145;28;20577;-71
2022/08/07 04:44:45;;;;;;;1999.90;999.90;;;13.70;99.90;;;;;;5061205;28;20179;-71
2022/08/07 04:47:27;;;;;;;1999.90;999.90;;;13.70;99.90;;;;;;5060846;28;20184;-71
2022/08/07 04:50:31;;;;;;;1999.90;999.90;;;13.80;99.90;;;;;;5061174;28;20187;-71
2022/08/07 04:53:00;;;;;;;1999.90;999.90;;;13.70;99.90;;;;;;5014049;28;20436;-71
2022/08/07 04:55:39;;;;;;;1999.90;999.90;;;13.80;99.90;;;;;;5054589;28;20403;-70
2022/08/07 04:58:27;;;;;;;1999.90;999.90;;;13.90;99.90;;;;;;5054612;28;20462;-71
2022/08/07 05:00:55;;;;;;;1999.90;999.90;;;13.90;99.90;;;;;;5054503;28;20416;-70
2022/08/07 05:03:24;;;;;;;1999.90;999.90;;;13.90;99.90;;;;;;5054442;28;20502;-70
2022/08/07 05:06:01;;;;;;;1999.90;999.90;;;13.90;99.90;;;;;;5054339;28;20404;-70
2022/08/07 05:08:38;;;;;;;1999.90;999.90;;;13.90;99.90;;;;;;5053565;28;20877;-71
2022/08/07 05:11:19;;;;;;;1999.90;999.90;;;14.00;99.90;;;;;;5054349;28;20467;-70
2022/08/07 05:13:53;;;;;;;1999.90;999.90;;;14.00;99.90;;;;;;5054358;28;20488;-70
2022/08/07 05:16:20;;;;;;;1999.90;999.90;;;14.10;99.90;;;;;;5054240;28;20923;-70
2022/08/07 05:18:54;;;;;;;1999.90;999.90;;;14.10;99.90;;;;;;5054181;28;20413;-70
2022/08/07 05:21:24;;;;;;;1999.90;999.90;;;14.20;99.90;;;;;;5054097;28;20432;-71
2022/08/07 05:24:00;;;;;;;1999.90;999.90;;;14.30;99.90;;;;;;5054086;28;20494;-70
2022/08/07 05:26:27;;;;;;;1999.90;999.90;;;14.30;99.90;;;;;;5053853;28;20408;-70
2022/08/07 05:28:56;;;;;;;1999.90;999.90;;;14.40;99.90;;;;;;5054083;28;20496;-70
2022/08/07 05:31:25;;;;;;;1999.90;999.90;;;14.50;99.90;;;;;;5053752;28;20472;-70
2022/08/07 05:33:52;;;;;;;1999.90;999.90;;;14.60;99.90;;;;;;5054015;28;20409;-71
2022/08/07 05:36:21;;;;;;;1999.90;999.90;;;14.60;99.90;;;;;;5053779;28;20410;-70
2022/08/07 05:38:48;;;;;;;1999.90;999.90;;;14.70;99.90;;;;;;5053913;28;20422;-70
2022/08/07 05:41:14;;;;;;;1999.90;999.90;;;14.80;99.90;;;;;;5053702;28;20428;-70
2022/08/07 05:43:41;;;;;;;1999.90;999.90;;;14.80;99.90;;;;;;5053748;28;20498;-70
2022/08/07 05:46:07;;;;;;;1999.90;999.90;;;14.90;99.90;;;;;;5057552;28;20414;-72
2022/08/07 05:48:33;;;;;;;1999.90;999.90;;;15.00;99.90;;;;;;5058090;28;20475;-71
2022/08/07 05:51:00;;;;;;;1999.90;999.90;;;15.10;99.90;;;;;;5057891;28;20208;-71
2022/08/07 05:53:26;;;;;;;1999.90;999.90;;;15.20;99.90;;;;;;5058470;28;20781;-71
2022/08/07 05:55:54;;;;;;;1999.90;999.90;;;15.20;99.90;;;;;;5058476;28;20443;-71
2022/08/07 05:58:22;;;;;;;1999.90;999.90;;;15.20;99.90;;;;;;5057855;28;20414;-71
2022/08/07 06:00:50;;;;;;;1999.90;999.90;;;15.30;99.90;;;;;;5054793;28;20879;-70
2022/08/07 06:03:18;;;;;;;1999.90;999.90;;;15.40;99.90;;;;;;5053410;28;20421;-70
2022/08/07 06:05:47;;;;;;;1999.90;999.90;;;15.50;99.90;;;;;;5053238;28;20491;-70
2022/08/07 06:08:14;;;;;;;1999.90;999.90;;;15.60;99.90;;;;;;5053047;28;20419;-70
2022/08/07 06:10:40;;;;;;;1999.90;999.90;;;15.60;99.90;;;;;;5052981;28;20409;-70
2022/08/07 06:13:06;;;;;;;1999.90;999.90;;;15.50;99.90;;;;;;5053175;28;20399;-71
2022/08/07 06:15:34;;;;;;;1999.90;999.90;;;15.50;99.90;;;;;;5053364;28;20233;-71
2022/08/07 06:18:02;;;;;;;1999.90;999.90;;;15.40;99.90;;;;;;5053339;28;20416;-70
2022/08/07 06:20:30;;;;;;;1999.90;999.90;;;15.60;99.90;;;;;;5053299;28;20402;-70
2022/08/07 06:22:56;;;;;;;1999.90;999.90;;;15.60;99.90;;;;;;5053300;28;20800;-71
2022/08/07 06:25:22;;;;;;;1999.90;999.90;;;15.70;99.90;;;;;;5052821;28;20407;-70
2022/08/07 06:27:48;;;;;;;1999.90;999.90;;;15.80;99.90;;;;;;5052595;28;20419;-70
2022/08/07 06:30:13;;;;;;;1999.90;999.90;;;15.80;99.90;;;;;;5056411;28;20182;-71
2022/08/07 06:32:39;;;;;;;1999.90;999.90;;;15.80;99.90;;;;;;5059196;28;20215;-71
2022/08/07 06:35:05;;;;;;;1999.90;999.90;;;15.80;99.90;;;;;;5057929;28;20178;-71
2022/08/07 06:37:31;;;;;;;1999.90;999.90;;;15.90;99.90;;;;;;5057697;28;20178;-71
2022/08/07 06:39:56;;;;;;;1999.90;999.90;;;16.00;99.90;;;;;;5057681;28;20436;-71
2022/08/07 06:42:36;;;;;;;1999.90;999.90;;;16.10;99.90;;;;;;5056891;28;20195;-71
2022/08/07 06:45:04;;;;;;;1999.90;999.90;;;16.30;99.90;;;;;;5057712;28;20217;-71
2022/08/07 06:47:30;;;;;;;1999.90;999.90;;;16.40;99.90;;;;;;5052551;28;20924;-71
2022/08/07 06:49:56;;;;;;;1999.90;999.90;;;16.50;99.90;;;;;;5052487;28;20501;-70
2022/08/07 06:52:26;;;;;;;1999.90;999.90;;;16.60;99.90;;;;;;5052283;28;20574;-71
2022/08/07 06:54:53;;;;;;;1999.90;999.90;;;16.70;99.90;;;;;;5052609;28;20413;-70
2022/08/07 06:57:20;;;;;;;1999.90;999.90;;;16.80;99.90;;;;;;5052019;28;20428;-71
2022/08/07 06:59:47;;;;;;;1999.90;999.90;;;16.90;99.90;;;;;;5052330;28;20786;-71
2022/08/07 07:02:20;;;;;;;1999.90;999.90;;;17.00;99.90;;;;;;5052341;28;20948;-71
2022/08/07 07:04:46;;;;;;;1999.90;999.90;;;17.10;99.90;;;;;;5052165;28;20440;-71
2022/08/07 07:07:13;;;;;;;1999.90;999.90;;;17.20;99.90;;;;;;5051953;28;20490;-71
2022/08/07 07:09:46;;;;;;;1999.90;999.90;;;17.30;99.90;;;;;;5052123;28;20501;-71
2022/08/07 07:12:23;;;;;;;1999.90;999.90;;;17.40;99.90;;;;;;5048910;28;20474;-73
2022/08/07 07:14:58;;;;;;;1999.90;999.90;;;17.60;99.90;;;;;;5051708;28;20416;-73
2022/08/07 07:17:33;;;;;;;1999.90;999.90;;;17.70;99.90;;;;;;5051551;28;20397;-73
2022/08/07 07:20:04;;;;;;;1999.90;999.90;;;17.80;99.90;;;;;;5051255;28;20927;-73
2022/08/07 07:22:30;;;;;;;1999.90;999.90;;;17.90;99.90;;;;;;5051473;28;20828;-73
2022/08/07 07:24:57;;;;;;;1999.90;999.90;;;18.00;99.90;;;;;;5051689;28;20441;-73
2022/08/07 07:27:28;;;;;;;1999.90;999.90;;;18.00;99.90;;;;;;5033271;28;20425;-74
2022/08/07 07:29:57;;;;;;;1999.90;999.90;;;18.00;99.90;;;;;;5051260;28;20402;-72
2022/08/07 07:32:24;;;;;;;1999.90;999.90;;;18.20;99.90;;;;;;5050979;28;20461;-72
2022/08/07 07:34:54;;;;;;;1999.90;999.90;;;18.30;99.90;;;;;;5051790;28;20411;-74
2022/08/07 07:37:21;;;;;;;1999.90;999.90;;;18.30;99.90;;;;;;5051606;28;20399;-74
2022/08/07 07:39:48;;;;;;;1999.90;999.90;;;18.40;99.90;;;;;;5051672;28;20954;-72
2022/08/07 07:42:16;;;;;;;1999.90;999.90;;;18.40;99.90;;;;;;5051703;28;20423;-72
2022/08/07 07:44:45;;;;;;;1999.90;999.90;;;18.40;99.90;;;;;;5051773;28;20895;-74
2022/08/07 07:47:13;;;;;;;1999.90;999.90;;;18.40;99.90;;;;;;5051555;28;20416;-72
2022/08/07 07:49:40;;;;;;;1999.90;999.90;;;18.40;99.90;;;;;;5051695;28;20406;-72
2022/08/07 07:52:07;;;;;;;1999.90;999.90;;;18.50;99.90;;;;;;5051545;28;20458;-72
2022/08/07 07:54:34;;;;;;;1999.90;999.90;;;18.70;99.90;;;;;;5051604;28;20497;-72
2022/08/07 07:57:01;;;;;;;1999.90;999.90;;;18.80;99.90;;;;;;5051276;28;20919;-72
2022/08/07 07:59:28;;;;;;;1999.90;999.90;;;18.80;99.90;;;;;;5051629;28;20443;-72
2022/08/07 08:01:57;;;;;;;1999.90;999.90;;;18.90;99.90;;;;;;5051539;28;20489;-72
2022/08/07 08:04:24;;;;;;;1999.90;999.90;;;19.00;99.90;;;;;;5051566;28;20417;-72
2022/08/07 08:06:50;;;;;;;1999.90;999.90;;;18.90;99.90;;;;;;5051230;28;20415;-72
2022/08/07 08:09:19;;;;;;;1999.90;999.90;;;18.90;99.90;;;;;;5051435;28;20467;-72
2022/08/07 08:11:45;;;;;;;1999.90;999.90;;;19.00;99.90;;;;;;5051188;28;20485;-72
2022/08/07 08:14:11;;;;;;;1999.90;999.90;;;19.20;99.90;;;;;;5051504;28;20917;-72
2022/08/07 08:16:41;;;;;;;1999.90;999.90;;;19.20;99.90;;;;;;5051147;28;20409;-73
2022/08/07 08:19:10;;;;;;;1999.90;999.90;;;19.20;99.90;;;;;;5051486;28;20165;-73
2022/08/07 08:27:16;;;;;;;1999.90;999.90;;;19.50;99.90;;;;;;5051443;28;20405;-70
2022/08/07 08:30:05;;;;;;;1999.90;999.90;;;19.40;99.90;;;;;;5051309;28;20410;-71
2022/08/07 08:32:35;;;;;;;1999.90;999.90;;;19.50;99.90;;;;;;5051102;28;20475;-70
2022/08/07 08:35:01;;;;;;;1999.90;999.90;;;19.80;99.90;;;;;;5051359;28;20404;-70
2022/08/07 08:37:30;;;;;;;1999.90;999.90;;;19.90;99.90;;;;;;5051168;28;20417;-71
2022/08/07 08:39:56;;;;;;;1999.90;999.90;;;20.00;99.90;;;;;;5052499;28;20406;-71
2022/08/07 08:42:26;;;;;;;1999.90;999.90;;;20.10;99.90;;;;;;5055384;28;20438;-71
2022/08/07 08:45:06;;;;;;;1999.90;999.90;;;20.20;99.90;;;;;;5058755;28;20880;-71
2022/08/07 08:47:47;;;;;;;1999.90;999.90;;;20.20;99.90;;;;;;5056480;28;20402;-70
2022/08/07 08:50:29;;;;;;;1999.90;999.90;;;20.40;99.90;;;;;;5052447;28;20415;-69
2022/08/07 08:53:03;;;;;;;1999.90;999.90;;;20.50;99.90;;;;;;5054306;28;20426;-71
2022/08/07 08:55:55;;;;;;;1999.90;999.90;;;20.60;99.90;;;;;;5054194;28;20406;-70
2022/08/07 08:58:29;;;;;;;1999.90;999.90;;;20.60;99.90;;;;;;5054265;28;20483;-68
2022/08/07 09:01:09;;;;;;;1999.90;999.90;;;20.80;99.90;;;;;;5054232;28;20431;-71
2022/08/07 09:04:08;;;;;;;1999.90;999.90;;;20.90;99.90;;;;;;5054177;28;20369;-71
2022/08/07 09:06:39;;;;;;;1999.90;999.90;;;20.90;99.90;;;;;;5036138;28;20422;-70
2022/08/07 09:09:39;;;;;;;1999.90;999.90;;;21.00;99.90;;;;;;5054199;28;20400;-71
2022/08/07 09:12:33;;;;;;;1999.90;999.90;;;21.30;99.90;;;;;;5053896;28;20470;-69
2022/08/07 09:15:12;;;;;;;1999.90;999.90;;;21.50;99.90;;;;;;5053953;28;20444;-68
2022/08/07 09:17:59;;;;;;;1999.90;999.90;;;21.50;99.90;;;;;;5053623;28;20413;-72
2022/08/07 09:20:49;;;;;;;1999.90;999.90;;;21.50;95.80;;;;;;5053844;28;20402;-71
2022/08/07 09:23:30;;;;;;;1999.90;999.90;;;21.50;91.40;;;;;;5053833;28;20407;-72
2022/08/07 09:26:21;;;;;;;1999.90;999.90;;;21.50;92.80;;;;;;5053865;28;20403;-72
2022/08/07 09:28:52;;;;;;;1999.90;999.90;;;21.70;91.80;;;;;;5053657;28;20502;-72
2022/08/07 09:31:33;;;;;;;1999.90;999.90;;;21.70;86.40;;;;;;5068338;22;20493;-67
2022/08/07 09:34:44;;;;;;;1999.90;999.90;;;21.90;85.50;;;;;;5052224;28;20422;-65
2022/08/07 09:37:51;;;;;;;1999.90;999.90;;;22.20;80.70;;;;;;5019666;28;20509;-66
2022/08/07 09:40:25;;;;;;;1999.90;999.90;;;22.10;68.00;;;;;;5032471;28;20456;-66
2022/08/07 09:43:12;;;;;;;1999.90;999.90;;;22.10;72.00;;;;;;5033103;28;20445;-67
2022/08/07 09:45:57;;;;;;;1999.90;999.90;;;22.20;69.80;;;;;;5032688;28;20457;-66
2022/08/07 09:48:28;;;;;;;1999.90;999.90;;;22.40;68.90;;;;;;5033146;28;20903;-66
2022/08/07 09:51:15;;;;;;;1999.90;999.90;;;22.60;65.00;;;;;;5032861;28;20394;-66
2022/08/07 09:53:43;;;;;;;1999.90;999.90;;;22.60;57.50;;;;;;5032524;28;21133;-66
2022/08/07 09:56:46;;;;;;;1999.90;999.90;;;22.60;59.00;;;;;;5032714;28;20488;-66
2022/08/07 09:59:35;;;;;;;1999.90;999.90;;;22.70;60.90;;;;;;5031618;28;20561;-66
2022/08/07 10:02:16;;;;;;;1999.90;999.90;;;22.90;64.80;;;;;;5031881;28;21140;-66
2022/08/07 10:04:54;;;;;;;1999.90;999.90;;;23.30;63.40;;;;;;5032530;28;20411;-66
2022/08/07 10:07:57;;;;;;;1999.90;999.90;;;23.30;56.30;;;;;;5031969;28;20385;-65
2022/08/07 10:10:33;;;;;;;1999.90;999.90;;;23.50;55.30;;;;;;5032806;28;20532;-65
2022/08/07 10:13:04;;;;;;;1999.90;999.90;;;23.40;52.80;;;;;;5031921;28;20454;-64
2022/08/07 10:15:54;;;;;;;1999.90;999.90;;;23.60;54.20;;;;;;5031907;28;20414;-65
2022/08/07 10:18:42;;;;;;;1999.90;999.90;;;23.90;53.30;;;;;;5032254;28;20440;-66
2022/08/07 10:21:47;;;;;;;1999.90;999.90;;;24.20;50.50;;;;;;5035916;28;20381;-65
2022/08/07 10:24:37;;;;;;;1999.90;999.90;;;24.30;47.20;;;;;;5046312;28;20406;-67
2022/08/07 10:27:16;;;;;;;1999.90;999.90;;;24.40;45.00;;;;;;5040973;28;20389;-66
2022/08/07 10:30:08;;;;;;;1999.90;999.90;;;24.40;42.90;;;;;;5033501;28;20464;-66
2022/08/07 10:32:58;;;;;;;1999.90;999.90;;;24.30;43.00;;;;;;5032088;28;20440;-66
2022/08/07 10:35:43;;;;;;;1999.90;999.90;;;24.60;41.00;;;;;;5032377;28;20478;-66
2022/08/07 10:38:25;;;;;;;1999.90;999.90;;;24.80;38.40;;;;;;5031913;28;20430;-66
2022/08/07 10:41:05;;;;;;;1999.90;999.90;;;24.80;37.80;;;;;;5031963;28;20810;-66
2022/08/07 10:43:36;;;;;;;1999.90;999.90;;;24.70;38.00;;;;;;5031653;28;20381;-65
2022/08/07 10:46:14;;;;;;;1999.90;999.90;;;24.80;38.80;;;;;;5032027;28;20388;-66
2022/08/07 10:48:49;;;;;;;1999.90;999.90;;;25.10;38.20;;;;;;5032140;28;20388;-66
2022/08/07 10:51:48;;;;;;;1999.90;999.90;;;25.10;36.80;;;;;;5031381;28;20441;-66
2022/08/07 10:54:38;;;;;;;1999.90;999.90;;;25.40;37.90;;;;;;5031394;28;20779;-66
2022/08/07 10:57:11;;;;;;;1999.90;999.90;;;25.60;35.30;;;;;;5041386;28;20442;-66
2022/08/07 10:59:52;;;;;;;1999.90;999.90;;;25.60;34.20;;;;;;5040853;28;20450;-66
2022/08/07 11:02:40;;;;;;;1999.90;999.90;;;25.70;32.80;;;;;;5040669;28;20438;-65
2022/08/07 11:05:29;;;;;;;1999.90;999.90;;;25.40;32.20;;;;;;5036359;28;20397;-66
2022/08/07 11:08:04;;;;;;;1999.90;999.90;;;25.50;32.20;;;;;;5044533;28;20399;-66
2022/08/07 11:10:56;;;;;;;1999.90;999.90;;;25.60;32.70;;;;;;5044211;28;20396;-66
2022/08/07 11:13:48;;;;;;;1999.90;999.90;;;25.90;32.60;;;;;;5044042;28;20454;-65
2022/08/07 11:16:35;;;;;;;1999.90;999.90;;;26.10;31.30;;;;;;5042015;28;20906;-67
2022/08/07 11:19:22;;;;;;;1999.90;999.90;;;26.30;30.30;;;;;;5043270;28;20512;-65
2022/08/07 11:22:20;;;;;;;1999.90;999.90;;;26.50;28.70;;;;;;5043451;28;20521;-66
2022/08/07 11:24:59;;;;;;;1999.90;999.90;;;26.50;27.40;;;;;;5043942;28;20486;-65
2022/08/07 11:27:44;;;;;;;1999.90;999.90;;;26.60;28.90;;;;;;5043567;28;20381;-65
2022/08/07 11:30:17;;;;;;;1999.90;999.90;;;26.90;28.70;;;;;;5041573;28;20456;-67
2022/08/07 11:32:53;;;;;;;1999.90;999.90;;;26.70;27.20;;;;;;5042931;28;20466;-66
2022/08/07 11:35:22;;;;;;;1999.90;999.90;;;26.30;27.90;;;;;;5042584;28;20870;-65
2022/08/07 11:38:10;;;;;;;1999.90;999.90;;;25.90;28.50;;;;;;5042365;28;20434;-66
2022/08/07 11:40:54;;;;;;;1999.90;999.90;;;25.60;28.80;;;;;;5042394;28;20422;-65
2022/08/07 11:43:30;;;;;;;1999.90;999.90;;;25.60;29.20;;;;;;5043166;28;20419;-66
2022/08/07 11:46:23;;;;;;;1999.90;999.90;;;25.70;28.80;;;;;;5042947;28;20409;-64
2022/08/07 11:48:49;;;;;;;1999.90;999.90;;;25.80;28.40;;;;;;5043255;28;20403;-66
2022/08/07 11:51:17;;;;;;;1999.90;999.90;;;25.80;27.60;;;;;;5041452;28;20450;-65
2022/08/07 11:53:54;;;;;;;1999.90;999.90;;;25.70;27.80;;;;;;5042252;28;20168;-66
2022/08/07 11:56:44;;;;;;;1999.90;999.90;;;25.80;27.40;;;;;;5043107;28;20498;-66
2022/08/07 11:59:48;;;;;;;1999.90;999.90;;;26.00;27.90;;;;;;5041430;28;20417;-66
2022/08/07 12:02:41;;;;;;;1999.90;999.90;;;26.30;26.50;;;;;;5039075;28;20443;-66
2022/08/07 12:05:14;;;;;;;1999.90;999.90;;;26.70;26.10;;;;;;5039170;28;20482;-65
2022/08/07 12:07:52;;;;;;;1999.90;999.90;;;27.10;25.30;;;;;;5042561;28;20419;-66
2022/08/07 12:10:47;;;;;;;1999.90;999.90;;;27.70;24.80;;;;;;5042163;28;20790;-66
2022/08/07 12:13:25;;;;;;;1999.90;999.90;;;29.10;24.40;;;;;;5035866;28;20462;-66
2022/08/07 12:16:00;;;;;;;1999.90;999.90;;;30.30;24.40;;;;;;5039997;28;20439;-67
2022/08/07 12:19:11;;;;;;;1999.90;999.90;;;31.10;19.70;;;;;;5042367;28;20512;-66
2022/08/07 12:22:06;;;;;;;1999.90;999.90;;;31.70;19.50;;;;;;5041208;28;20427;-66
2022/08/07 12:25:51;;;;;;;1999.90;999.90;;;31.50;16.70;;;;;;5043227;28;20421;-66
2022/08/07 12:27:38;;;;;;;1999.90;999.90;;;31.20;16.30;;;;;;5043536;28;20411;-65
2022/08/07 12:30:06;;;;;;;1999.90;999.90;;;31.00;17.10;;;;;;5043647;28;20423;-65
2022/08/07 12:32:44;;;;;;;1999.90;999.90;;;31.70;16.60;;;;;;5041323;28;20470;-66